createdAt,value
2018-06-21T00:02:13.200Z,78.10
2018-06-21T00:04:40.964Z,78.00
2018-06-21T00:07:08.625Z,78.30
2018-06-21T00:09:36.497Z,77.70
2018-06-21T00:12:05.220Z,77.70
2018-06-21T00:14:33.066Z,77.90
2018-06-21T00:17:00.939Z,77.50
2018-06-21T00:19:28.850Z,78.60
2018-06-21T00:21:56.596Z,79.80
2018-06-21T00:24:24.544Z,79.20
2018-06-21T00:26:52.354Z,79.20
2018-06-21T00:29:20.351Z,79.00
2018-06-21T00:31:48.006Z,78.70
2018-06-21T00:34:15.889Z,78.80
2018-06-21T00:36:43.723Z,78.80
2018-06-21T00:39:11.508Z,78.70
2018-06-21T00:41:39.381Z,78.50
2018-06-21T00:44:07.240Z,78.40
2018-06-21T00:46:35.264Z,78.20
2018-06-21T00:49:03.122Z,78.20
2018-06-21T00:51:30.889Z,78.30
2018-06-21T00:53:58.603Z,78.40
2018-06-21T00:56:26.425Z,78.60
2018-06-21T00:58:54.249Z,78.80
2018-06-21T01:01:22.377Z,78.90
2018-06-21T01:03:50.310Z,78.60
2018-06-21T01:06:18.153Z,78.80
2018-06-21T01:08:45.867Z,79.00
2018-06-21T01:11:13.671Z,79.20
2018-06-21T01:13:41.373Z,79.20
2018-06-21T01:16:09.154Z,79.50
2018-06-21T01:18:36.898Z,79.70
2018-06-21T01:21:05.069Z,79.80
2018-06-21T01:23:33.099Z,79.70
2018-06-21T01:26:01.027Z,80.00
2018-06-21T01:28:28.740Z,79.90
2018-06-21T01:30:56.593Z,79.90
2018-06-21T01:33:24.262Z,80.00
2018-06-21T01:35:51.967Z,80.40
2018-06-21T01:38:19.760Z,80.40
2018-06-21T01:40:47.721Z,80.60
2018-06-21T01:43:15.581Z,80.70
2018-06-21T01:45:43.611Z,80.30
2018-06-21T01:48:11.485Z,80.20
2018-06-21T01:50:39.329Z,80.40
2018-06-21T01:53:07.049Z,80.80
2018-06-21T01:55:34.737Z,81.00
2018-06-21T01:58:02.454Z,80.70
2018-06-21T02:00:32.391Z,81.00
2018-06-21T02:03:00.224Z,81.80
2018-06-21T02:05:28.110Z,81.00
2018-06-21T02:07:55.982Z,81.00
2018-06-21T02:10:23.735Z,80.90
2018-06-21T02:12:51.474Z,81.30
2018-06-21T02:15:19.324Z,81.50
2018-06-21T02:17:47.179Z,81.60
2018-06-21T02:20:14.957Z,81.70
2018-06-21T02:22:42.699Z,82.00
2018-06-21T02:25:10.534Z,82.60
2018-06-21T02:30:06.074Z,82.70
2018-06-21T02:32:33.859Z,82.80
2018-06-21T02:35:01.764Z,82.60
2018-06-21T02:37:29.532Z,83.00
2018-06-21T02:39:57.366Z,82.90
2018-06-21T02:42:25.191Z,83.00
2018-06-21T02:44:52.999Z,82.40
2018-06-21T02:47:20.902Z,82.10
2018-06-21T02:49:48.812Z,81.40
2018-06-21T02:52:16.642Z,80.90
2018-06-21T02:54:44.545Z,80.90
2018-06-21T02:57:12.483Z,79.80
2018-06-21T02:59:40.475Z,80.40
2018-06-21T03:02:08.206Z,80.20
2018-06-21T03:04:35.944Z,80.30
2018-06-21T03:07:03.838Z,80.60
2018-06-21T03:09:31.660Z,80.70
2018-06-21T03:11:59.548Z,81.10
2018-06-21T03:14:27.380Z,81.10
2018-06-21T03:16:55.303Z,81.10
2018-06-21T03:19:23.119Z,81.30
2018-06-21T03:21:50.971Z,81.40
2018-06-21T03:24:18.807Z,81.70
2018-06-21T03:26:46.511Z,81.40
2018-06-21T03:29:14.329Z,82.60
2018-06-21T03:31:42.211Z,83.50
2018-06-21T03:34:09.931Z,82.90
2018-06-21T03:39:06.199Z,82.20
2018-06-21T03:41:34.261Z,81.60
2018-06-21T03:44:02.221Z,80.90
2018-06-21T03:46:30.286Z,80.70
2018-06-21T03:48:58.122Z,80.40
2018-06-21T03:51:25.994Z,80.20
2018-06-21T03:53:53.794Z,80.30
2018-06-21T03:56:21.928Z,80.50
2018-06-21T03:58:49.790Z,80.80
2018-06-21T04:01:17.677Z,80.60
2018-06-21T04:03:45.795Z,80.40
2018-06-21T04:06:13.646Z,80.20
2018-06-21T04:08:41.767Z,80.50
2018-06-21T04:11:09.729Z,80.40
2018-06-21T04:13:37.633Z,80.20
2018-06-21T04:16:05.391Z,79.80
2018-06-21T04:18:36.099Z,80.30
2018-06-21T04:21:05.374Z,79.60
2018-06-21T04:26:01.623Z,80.00
2018-06-21T04:28:29.783Z,80.10
2018-06-21T04:30:57.978Z,79.50
2018-06-21T04:33:25.834Z,79.20
2018-06-21T04:35:53.770Z,79.40
2018-06-21T04:38:21.595Z,79.30
2018-06-21T04:40:49.548Z,79.40
2018-06-21T04:43:17.350Z,79.00
2018-06-21T04:45:45.283Z,77.90
2018-06-21T04:48:13.332Z,77.30
2018-06-21T04:50:41.325Z,76.60
2018-06-21T04:53:09.198Z,75.10
2018-06-21T04:55:37.070Z,74.80
2018-06-21T04:58:05.160Z,74.20
2018-06-21T05:00:33.069Z,73.80
2018-06-21T05:03:01.147Z,73.70
2018-06-21T05:05:29.091Z,73.90
2018-06-21T05:07:56.890Z,74.30
2018-06-21T05:10:24.753Z,74.00
2018-06-21T05:12:52.576Z,73.60
2018-06-21T05:15:20.410Z,73.60
2018-06-21T05:17:51.457Z,73.30
2018-06-21T05:20:19.348Z,73.10
2018-06-21T05:22:47.124Z,73.10
2018-06-21T05:25:15.040Z,72.80
2018-06-21T05:27:42.924Z,72.00
2018-06-21T05:30:10.781Z,71.90
2018-06-21T05:32:38.621Z,71.50
2018-06-21T05:35:06.540Z,70.90
2018-06-21T05:37:34.553Z,70.80
2018-06-21T05:40:02.295Z,70.00
2018-06-21T05:42:30.419Z,69.90
2018-06-21T05:44:58.214Z,70.00
2018-06-21T05:47:26.109Z,70.10
2018-06-21T05:49:54.050Z,69.90
2018-06-21T05:52:21.918Z,69.20
2018-06-21T05:54:49.816Z,69.20
2018-06-21T05:57:17.868Z,69.00
2018-06-21T05:59:45.894Z,69.10
2018-06-21T06:04:41.562Z,68.30
2018-06-21T06:07:09.678Z,68.00
2018-06-21T06:09:37.528Z,67.80
2018-06-21T06:12:05.704Z,67.10
2018-06-21T06:14:33.544Z,66.40
2018-06-21T06:17:01.604Z,66.50
2018-06-21T06:19:29.658Z,66.10
2018-06-21T06:21:57.375Z,66.80
2018-06-21T06:24:25.246Z,66.40
2018-06-21T06:26:53.256Z,65.90
2018-06-21T06:29:21.125Z,65.40
2018-06-21T06:31:49.085Z,61.70
2018-06-21T06:34:16.984Z,58.30
2018-06-21T06:36:44.718Z,59.00
2018-06-21T06:39:18.630Z,57.60
2018-06-21T06:41:48.911Z,55.50
2018-06-21T06:44:16.844Z,52.40
2018-06-21T06:46:44.675Z,49.10
2018-06-21T06:49:13.075Z,48.10
2018-06-21T06:51:41.163Z,46.20
2018-06-21T06:54:10.280Z,46.20
2018-06-21T06:56:38.251Z,46.00
2018-06-21T06:59:06.130Z,46.60
2018-06-21T07:01:34.012Z,45.60
2018-06-21T07:04:01.904Z,44.90
2018-06-21T07:06:29.791Z,44.90
2018-06-21T07:08:58.204Z,44.30
2018-06-21T07:11:27.043Z,43.10
2018-06-21T07:13:55.533Z,43.90
2018-06-21T07:16:23.564Z,45.10
2018-06-21T07:18:51.335Z,44.00
2018-06-21T07:21:20.316Z,43.40
2018-06-21T07:23:48.173Z,43.40
2018-06-21T07:26:16.171Z,40.80
2018-06-21T07:28:44.139Z,40.40
2018-06-21T07:31:12.034Z,39.90
2018-06-21T07:33:39.886Z,41.70
2018-06-21T07:36:07.552Z,43.30
2018-06-21T07:38:35.358Z,45.10
2018-06-21T07:41:03.075Z,46.10
2018-06-21T07:43:30.819Z,45.50
2018-06-21T07:45:58.656Z,43.20
2018-06-21T07:48:26.617Z,42.10
2018-06-21T07:50:54.438Z,40.50
2018-06-21T07:53:22.304Z,39.80
2018-06-21T07:55:50.044Z,38.90
2018-06-21T07:58:18.457Z,38.20
2018-06-21T08:00:46.450Z,38.30
2018-06-21T08:03:14.411Z,38.60
2018-06-21T08:05:42.851Z,38.00
2018-06-21T08:08:10.867Z,38.00
2018-06-21T08:10:38.682Z,36.80
2018-06-21T08:13:06.445Z,36.30
2018-06-21T08:15:34.320Z,37.30
2018-06-21T08:18:02.190Z,37.80
2018-06-21T08:20:29.958Z,37.60
2018-06-21T08:22:58.037Z,38.40
2018-06-21T08:25:26.040Z,37.90
2018-06-21T08:27:53.840Z,37.70
2018-06-21T08:30:21.717Z,39.10
2018-06-21T08:32:49.617Z,41.30
2018-06-21T08:35:17.680Z,42.60
2018-06-21T08:37:46.261Z,43.70
2018-06-21T08:40:14.319Z,44.00
2018-06-21T08:42:42.218Z,43.60
2018-06-21T08:45:10.008Z,44.10
2018-06-21T08:47:37.806Z,43.60
2018-06-21T08:50:05.678Z,43.80
2018-06-21T08:52:33.533Z,45.30
2018-06-21T08:55:01.603Z,45.60
2018-06-21T08:57:29.835Z,46.50
2018-06-21T08:59:57.876Z,46.20
2018-06-21T09:02:26.009Z,45.80
2018-06-21T09:04:54.138Z,45.50
2018-06-21T09:07:22.558Z,45.90
2018-06-21T09:09:50.607Z,44.30
2018-06-21T09:12:18.799Z,44.20
2018-06-21T09:14:47.345Z,44.00
2018-06-21T09:17:15.972Z,44.30
2018-06-21T09:19:46.135Z,43.80
2018-06-21T09:22:17.644Z,44.40
2018-06-21T09:24:45.794Z,44.70
2018-06-21T09:27:14.626Z,44.20
2018-06-21T09:29:44.444Z,44.30
2018-06-21T09:32:15.115Z,42.60
2018-06-21T09:34:43.918Z,42.20
2018-06-21T09:37:13.558Z,41.80
2018-06-21T09:39:48.439Z,42.50
2018-06-21T09:42:21.969Z,42.60
2018-06-21T09:44:55.420Z,42.30
2018-06-21T09:47:29.156Z,41.70
2018-06-21T09:49:57.204Z,42.50
2018-06-21T09:52:25.336Z,43.10
2018-06-21T09:54:53.348Z,43.70
2018-06-21T09:59:49.152Z,42.30
2018-06-21T10:02:17.376Z,42.20
2018-06-21T10:04:45.998Z,42.50
2018-06-21T10:07:14.233Z,43.00
2018-06-21T10:09:42.438Z,43.20
2018-06-21T10:12:10.451Z,43.10
2018-06-21T10:14:38.394Z,41.60
2018-06-21T10:17:08.635Z,40.10
2018-06-21T10:19:41.557Z,40.30
2018-06-21T10:22:09.625Z,40.90
2018-06-21T10:24:37.809Z,41.20
2018-06-21T10:27:05.844Z,41.00
2018-06-21T10:29:34.038Z,40.60
2018-06-21T10:32:02.325Z,41.10
2018-06-21T10:34:30.830Z,40.80
2018-06-21T10:36:59.213Z,40.50
2018-06-21T10:39:27.363Z,39.70
2018-06-21T10:41:55.398Z,38.10
2018-06-21T10:44:23.605Z,38.30
2018-06-21T10:46:51.542Z,37.50
2018-06-21T10:49:19.517Z,38.10
2018-06-21T10:51:47.642Z,38.00
2018-06-21T10:54:16.488Z,36.70
2018-06-21T10:56:45.527Z,35.00
2018-06-21T10:59:14.639Z,34.40
2018-06-21T11:01:44.044Z,34.10
2018-06-21T11:04:12.370Z,33.10
2018-06-21T11:06:40.524Z,33.60
2018-06-21T11:09:09.041Z,35.00
2018-06-21T11:11:37.056Z,34.60
2018-06-21T11:14:05.049Z,35.10
2018-06-21T11:16:32.982Z,33.90
2018-06-21T11:19:07.477Z,33.50
2018-06-21T11:21:35.511Z,34.10
2018-06-21T11:24:07.486Z,33.70
2018-06-21T11:26:35.420Z,32.30
2018-06-21T11:29:03.393Z,32.60
2018-06-21T11:31:33.165Z,30.70
2018-06-21T11:34:01.403Z,31.00
2018-06-21T11:36:29.838Z,31.00
2018-06-21T11:38:57.960Z,31.30
2018-06-21T11:41:32.961Z,32.70
2018-06-21T11:44:01.505Z,33.20
2018-06-21T11:46:37.368Z,34.50
2018-06-21T11:49:06.370Z,34.10
2018-06-21T11:51:34.372Z,34.30
2018-06-21T11:54:02.347Z,34.50
2018-06-21T11:56:30.283Z,35.00
2018-06-21T11:58:58.272Z,34.50
2018-06-21T12:01:26.191Z,36.30
2018-06-21T12:03:54.243Z,34.80
2018-06-21T12:06:22.348Z,35.40
2018-06-21T12:08:51.257Z,36.20
2018-06-21T12:11:19.553Z,34.80
2018-06-21T12:13:47.761Z,36.30
2018-06-21T12:16:15.974Z,36.80
2018-06-21T12:18:45.138Z,37.50
2018-06-21T12:23:41.797Z,37.60
2018-06-21T12:26:09.933Z,38.00
2018-06-21T12:28:37.858Z,37.60
2018-06-21T12:31:05.851Z,36.80
2018-06-21T12:33:33.778Z,36.60
2018-06-21T12:36:01.886Z,35.90
2018-06-21T12:38:40.652Z,36.30
2018-06-21T12:41:08.505Z,37.30
2018-06-21T12:43:36.328Z,44.90
2018-06-21T12:46:04.246Z,47.30
2018-06-21T12:48:32.072Z,49.00
2018-06-21T12:51:00.039Z,50.40
2018-06-21T12:53:28.075Z,50.90
2018-06-21T12:55:55.943Z,51.70
2018-06-21T13:00:51.553Z,52.60
2018-06-21T13:03:19.427Z,53.00
2018-06-21T13:05:47.509Z,51.50
2018-06-21T13:09:24.656Z,51.00
2018-06-21T13:12:35.321Z,50.20
2018-06-21T13:15:03.336Z,49.50
2018-06-21T13:17:31.642Z,49.70
2018-06-21T13:20:00.674Z,49.20
2018-06-21T13:22:28.726Z,49.70
2018-06-21T13:24:56.873Z,48.20
2018-06-21T13:27:24.793Z,47.90
2018-06-21T13:29:53.562Z,47.40
2018-06-21T13:32:21.578Z,46.60
2018-06-21T13:34:49.771Z,46.50
2018-06-21T13:37:17.843Z,46.10
2018-06-21T13:39:45.939Z,46.90
2018-06-21T13:42:14.015Z,47.40
2018-06-21T13:44:43.172Z,48.00
2018-06-21T13:47:11.950Z,48.00
2018-06-21T13:52:10.690Z,48.50
2018-06-21T13:54:38.601Z,49.20
2018-06-21T13:57:06.574Z,49.50
2018-06-21T13:59:34.505Z,49.40
2018-06-21T14:02:02.543Z,49.80
2018-06-21T14:04:30.387Z,49.20
2018-06-21T14:06:58.421Z,49.20
2018-06-21T14:09:26.314Z,49.60
2018-06-21T14:11:54.134Z,49.90
2018-06-21T14:14:22.266Z,50.70
2018-06-21T14:16:50.200Z,51.50
2018-06-21T14:19:18.524Z,52.30
2018-06-21T14:21:46.291Z,52.70
2018-06-21T14:24:14.915Z,53.60
2018-06-21T14:26:44.127Z,54.00
2018-06-21T14:31:40.381Z,57.20
2018-06-21T14:34:08.390Z,62.00
2018-06-21T14:36:36.271Z,62.40
2018-06-21T14:39:06.685Z,62.70
2018-06-21T14:41:34.683Z,62.60
2018-06-21T14:44:02.502Z,62.70
2018-06-21T14:46:30.256Z,65.80
2018-06-21T14:48:58.186Z,69.40
2018-06-21T14:51:26.004Z,69.30
2018-06-21T14:53:54.040Z,67.30
2018-06-21T14:56:21.972Z,68.10
2018-06-21T14:58:50.001Z,66.60
2018-06-21T15:01:17.948Z,67.20
2018-06-21T15:03:45.993Z,66.70
2018-06-21T15:06:13.993Z,66.70
2018-06-21T15:08:49.863Z,68.10
